createdAt,value
2019-02-02T10:18:22.802Z,54.69
2019-02-02T10:19:22.873Z,53.90
2019-02-02T10:20:23.015Z,53.55
2019-02-02T10:21:41.464Z,68.55
2019-02-02T10:22:41.742Z,51.59
2019-02-02T10:23:41.625Z,44.08
2019-02-02T10:24:59.026Z,46.42
2019-02-02T10:25:59.124Z,39.69
2019-02-02T10:26:59.251Z,53.60
2019-02-02T10:27:59.260Z,37.64
2019-02-02T10:28:59.522Z,40.22
2019-02-02T10:29:59.395Z,41.16
2019-02-02T10:30:54.847Z,40.66
2019-02-02T10:31:54.956Z,40.72
2019-02-02T10:33:07.188Z,42.51
2019-02-02T10:34:05.052Z,45.14
2019-02-02T10:35:05.243Z,43.95
2019-02-02T10:35:57.781Z,45.68
2019-02-02T10:37:04.196Z,45.09
2019-02-02T10:38:16.239Z,44.91
2019-02-02T10:39:04.157Z,45.21
2019-02-02T10:40:10.695Z,44.21
2019-02-02T10:41:06.665Z,43.91
2019-02-02T10:42:07.609Z,44.13
2019-02-02T10:43:02.010Z,43.21
2019-02-02T10:44:08.844Z,43.91
2019-02-02T10:45:08.952Z,43.91
2019-02-02T10:46:10.847Z,43.21
2019-02-02T10:47:09.192Z,43.31
2019-02-02T10:48:09.412Z,43.39
2019-02-02T10:49:09.564Z,43.63
2019-02-02T10:50:09.572Z,39.86
2019-02-02T10:51:09.703Z,39.59
2019-02-02T10:52:09.753Z,38.84
2019-02-02T10:53:09.859Z,37.41
2019-02-02T10:54:10.058Z,39.40
2019-02-02T10:55:10.045Z,40.05
2019-02-02T10:56:10.119Z,36.08
2019-02-02T10:56:55.004Z,35.80
2019-02-02T10:57:54.482Z,38.25
2019-02-02T10:58:39.114Z,37.56
2019-02-02T10:59:29.740Z,39.73
2019-02-02T11:00:29.620Z,36.37
2019-02-02T11:01:29.750Z,37.13
2019-02-02T11:02:29.893Z,35.85
2019-02-02T11:03:30.096Z,36.24
2019-02-02T11:04:30.188Z,35.75
2019-02-02T11:05:30.384Z,36.02
2019-02-02T11:06:30.490Z,35.04
2019-02-02T11:07:30.712Z,36.52
2019-02-02T11:08:24.846Z,35.91
2019-02-02T11:09:24.882Z,36.00
2019-02-02T11:10:24.976Z,35.61
2019-02-02T11:11:25.051Z,35.30
2019-02-02T11:12:25.175Z,36.68
